createdAt,value
2022-10-19T00:01:39.205Z,100.00
2022-10-19T00:04:08.668Z,100.00
2022-10-19T00:06:36.876Z,100.00
2022-10-19T00:09:14.898Z,100.00
2022-10-19T00:11:43.790Z,100.00
2022-10-19T00:14:17.865Z,100.00
2022-10-19T00:16:46.366Z,100.00
2022-10-19T00:19:21.930Z,100.00
2022-10-19T00:24:20.466Z,100.00
2022-10-19T00:26:47.282Z,100.00
2022-10-19T00:29:14.735Z,100.00
2022-10-19T00:31:41.858Z,100.00
2022-10-19T00:34:08.645Z,100.00
2022-10-19T00:36:38.709Z,100.00
2022-10-19T00:39:07.513Z,100.00
2022-10-19T00:41:36.625Z,100.00
2022-10-19T00:44:33.805Z,100.00
2022-10-19T00:47:03.807Z,100.00
2022-10-19T00:49:36.165Z,100.00
2022-10-19T00:52:04.633Z,100.00
2022-10-19T00:54:33.039Z,100.00
2022-10-19T00:57:00.132Z,100.00
2022-10-19T00:59:31.805Z,100.00
2022-10-19T01:01:59.348Z,100.00
2022-10-19T01:04:29.219Z,100.00
2022-10-19T01:06:56.990Z,100.00
2022-10-19T01:09:23.623Z,100.00
2022-10-19T01:12:26.785Z,100.00
2022-10-19T01:15:41.558Z,100.00
2022-10-19T01:18:30.608Z,100.00
2022-10-19T01:21:25.270Z,100.00
2022-10-19T01:24:26.230Z,100.00
2022-10-19T01:27:51.173Z,100.00
2022-10-19T01:30:33.428Z,100.00
2022-10-19T01:33:18.661Z,100.00
2022-10-19T01:36:09.294Z,100.00
2022-10-19T01:39:13.366Z,100.00
2022-10-19T01:42:18.570Z,100.00
2022-10-19T01:48:12.425Z,100.00
2022-10-19T01:50:59.144Z,100.00
2022-10-19T01:53:28.474Z,100.00
2022-10-19T01:55:56.764Z,100.00
2022-10-19T01:58:28.331Z,100.00
2022-10-19T02:00:57.357Z,100.00
2022-10-19T02:03:44.121Z,100.00
2022-10-19T02:06:12.729Z,100.00
2022-10-19T02:08:46.263Z,100.00
2022-10-19T02:11:12.971Z,100.00
2022-10-19T02:13:41.535Z,100.00
2022-10-19T02:16:29.758Z,100.00
2022-10-19T02:18:59.123Z,100.00
2022-10-19T02:21:26.712Z,100.00
2022-10-19T02:23:54.271Z,100.00
2022-10-19T02:26:21.770Z,100.00
2022-10-19T02:28:48.885Z,100.00
2022-10-19T02:31:15.726Z,100.00
2022-10-19T02:33:42.467Z,100.00
2022-10-19T02:36:09.120Z,100.00
2022-10-19T02:38:35.906Z,100.00
2022-10-19T02:41:11.353Z,100.00
2022-10-19T02:43:41.091Z,100.00
2022-10-19T02:46:14.011Z,100.00
2022-10-19T02:48:41.374Z,100.00
2022-10-19T02:51:27.245Z,100.00
2022-10-19T02:53:54.100Z,100.00
2022-10-19T02:56:21.062Z,100.00
2022-10-19T02:58:47.667Z,100.00
2022-10-19T03:01:14.965Z,100.00
2022-10-19T03:03:41.563Z,100.00
2022-10-19T03:06:08.524Z,100.00
2022-10-19T03:08:35.166Z,100.00
2022-10-19T03:11:01.745Z,100.00
2022-10-19T03:13:28.348Z,100.00
2022-10-19T03:15:54.993Z,100.00
2022-10-19T03:18:21.860Z,100.00
2022-10-19T03:20:48.430Z,100.00
2022-10-19T03:23:14.959Z,100.00
2022-10-19T03:25:41.522Z,100.00
2022-10-19T03:28:08.136Z,100.00
2022-10-19T03:30:34.964Z,100.00
2022-10-19T03:33:01.554Z,100.00
2022-10-19T03:35:28.095Z,100.00
2022-10-19T03:37:54.657Z,100.00
2022-10-19T03:40:21.294Z,100.00
2022-10-19T03:42:48.116Z,100.00
2022-10-19T03:45:15.435Z,100.00
2022-10-19T03:47:42.035Z,100.00
2022-10-19T03:50:11.710Z,100.00
2022-10-19T03:52:38.310Z,100.00
2022-10-19T03:55:05.804Z,100.00
2022-10-19T03:57:32.729Z,99.93
2022-10-19T03:59:59.777Z,99.68
2022-10-19T04:02:26.298Z,100.00
2022-10-19T04:04:52.898Z,100.00
2022-10-19T04:07:19.717Z,99.98
2022-10-19T04:09:46.467Z,99.54
2022-10-19T04:12:13.058Z,100.00
2022-10-19T04:14:56.186Z,100.00
2022-10-19T04:17:25.868Z,99.57
2022-10-19T04:19:52.518Z,100.00
2022-10-19T04:22:19.030Z,99.54
2022-10-19T04:24:45.570Z,99.06
2022-10-19T04:27:12.188Z,99.42
2022-10-19T04:29:38.859Z,99.18
2022-10-19T04:32:05.758Z,98.83
2022-10-19T04:34:35.178Z,98.79
2022-10-19T04:37:04.333Z,99.22
2022-10-19T04:39:30.911Z,99.58
2022-10-19T04:41:57.743Z,99.37
2022-10-19T04:46:55.797Z,99.22
2022-10-19T04:49:22.459Z,98.96
2022-10-19T04:51:49.010Z,99.36
2022-10-19T04:54:15.847Z,99.00
2022-10-19T04:56:42.454Z,98.76
2022-10-19T04:59:10.162Z,98.84
2022-10-19T05:01:36.961Z,98.77
2022-10-19T05:04:03.987Z,98.99
2022-10-19T05:06:31.718Z,99.26
2022-10-19T05:08:59.322Z,99.44
2022-10-19T05:11:26.461Z,99.74
2022-10-19T05:13:53.018Z,99.63
2022-10-19T05:16:22.289Z,100.00
2022-10-19T05:18:50.874Z,99.56
2022-10-19T05:21:19.275Z,99.63
2022-10-19T05:23:46.140Z,99.87
2022-10-19T05:26:16.573Z,100.00
2022-10-19T05:28:47.262Z,99.95
2022-10-19T05:31:16.182Z,100.00
2022-10-19T05:33:43.652Z,100.00
2022-10-19T05:36:27.822Z,100.00
2022-10-19T05:38:58.126Z,100.00
2022-10-19T05:41:25.762Z,100.00
2022-10-19T05:43:57.299Z,100.00
2022-10-19T05:46:25.181Z,100.00
2022-10-19T05:48:51.787Z,100.00
2022-10-19T05:51:20.162Z,100.00
2022-10-19T05:53:47.181Z,100.00
2022-10-19T05:56:20.013Z,100.00
2022-10-19T05:58:47.411Z,100.00
2022-10-19T06:01:14.554Z,99.97
2022-10-19T06:03:41.364Z,100.00
2022-10-19T06:06:09.267Z,99.36
2022-10-19T06:08:36.744Z,99.87
2022-10-19T06:11:24.950Z,98.49
2022-10-19T06:13:55.022Z,98.64
2022-10-19T06:16:23.866Z,98.71
2022-10-19T06:18:50.729Z,98.27
2022-10-19T06:21:21.303Z,98.81
2022-10-19T06:23:53.313Z,99.30
2022-10-19T06:26:20.817Z,98.09
2022-10-19T06:28:48.735Z,98.27
2022-10-19T06:31:15.971Z,98.94
2022-10-19T06:33:46.015Z,99.07
2022-10-19T06:36:18.818Z,99.44
2022-10-19T06:38:46.232Z,99.39
2022-10-19T06:41:13.494Z,99.27
2022-10-19T06:43:40.433Z,100.00
2022-10-19T06:46:09.526Z,100.00
2022-10-19T06:48:36.130Z,100.00
2022-10-19T06:51:06.407Z,100.00
2022-10-19T06:53:34.694Z,100.00
2022-10-19T06:56:03.356Z,100.00
2022-10-19T06:58:30.906Z,100.00
2022-10-19T07:01:01.304Z,100.00
2022-10-19T07:03:29.145Z,100.00
2022-10-19T07:05:57.391Z,100.00
2022-10-19T07:08:25.190Z,100.00
2022-10-19T07:11:00.266Z,100.00
2022-10-19T07:13:28.667Z,99.97
2022-10-19T07:16:03.578Z,100.00
2022-10-19T07:18:30.263Z,99.71
2022-10-19T07:20:59.094Z,99.07
2022-10-19T07:23:27.849Z,98.62
2022-10-19T07:26:00.645Z,98.51
2022-10-19T07:28:28.679Z,98.57
2022-10-19T07:30:55.698Z,98.48
2022-10-19T07:33:22.424Z,98.17
2022-10-19T07:35:49.084Z,98.05
2022-10-19T07:38:15.812Z,97.96
2022-10-19T07:40:46.345Z,97.75
2022-10-19T07:43:14.116Z,97.87
2022-10-19T07:45:40.680Z,97.76
2022-10-19T07:48:07.400Z,98.78
2022-10-19T07:50:33.974Z,98.51
2022-10-19T07:53:00.612Z,98.47
2022-10-19T07:55:27.197Z,97.97
2022-10-19T07:57:53.805Z,97.01
2022-10-19T08:00:20.425Z,98.59
2022-10-19T08:03:04.965Z,98.76
2022-10-19T08:05:34.479Z,99.11
2022-10-19T08:08:01.281Z,99.12
2022-10-19T08:10:27.943Z,98.78
2022-10-19T08:12:54.519Z,99.61
2022-10-19T08:15:21.088Z,99.08
2022-10-19T08:17:47.909Z,98.73
2022-10-19T08:20:14.495Z,97.45
2022-10-19T08:22:42.009Z,97.29
2022-10-19T08:25:08.730Z,97.41
2022-10-19T08:30:03.470Z,95.29
2022-10-19T08:32:30.062Z,95.46
2022-10-19T08:34:56.634Z,94.39
2022-10-19T08:37:40.345Z,94.48
2022-10-19T08:40:19.287Z,95.27
2022-10-19T08:43:10.190Z,93.67
2022-10-19T08:45:51.988Z,93.56
2022-10-19T08:48:25.398Z,93.00
2022-10-19T08:50:53.219Z,93.62
2022-10-19T08:53:54.691Z,91.62
2022-10-19T08:56:50.064Z,91.30
2022-10-19T08:59:55.758Z,91.58
2022-10-19T09:02:52.004Z,91.43
2022-10-19T09:05:35.856Z,92.02
2022-10-19T09:08:03.022Z,90.93
2022-10-19T09:10:35.530Z,90.98
2022-10-19T09:13:16.570Z,90.09
2022-10-19T09:15:46.365Z,89.68
2022-10-19T09:18:21.030Z,89.82
2022-10-19T09:20:50.333Z,90.60
2022-10-19T09:23:30.221Z,90.81
2022-10-19T09:25:57.790Z,90.54
2022-10-19T09:29:15.538Z,91.12
2022-10-19T09:31:45.666Z,91.37
2022-10-19T09:34:22.154Z,92.20
2022-10-19T09:36:57.438Z,90.53
2022-10-19T09:39:28.684Z,88.58
2022-10-19T09:41:59.934Z,88.31
2022-10-19T09:44:27.600Z,89.47
2022-10-19T09:47:20.640Z,87.74
2022-10-19T09:49:49.120Z,87.92
2022-10-19T09:52:36.167Z,89.41
2022-10-19T09:55:27.174Z,90.26
2022-10-19T09:58:03.164Z,89.31
2022-10-19T10:00:39.687Z,87.37
2022-10-19T10:03:07.633Z,86.29
2022-10-19T10:05:39.784Z,86.20
2022-10-19T10:08:22.714Z,86.03
2022-10-19T10:11:15.467Z,86.97
2022-10-19T10:13:44.070Z,87.19
2022-10-19T10:16:16.745Z,88.11
2022-10-19T10:18:55.884Z,85.90
2022-10-19T10:21:47.805Z,85.43
2022-10-19T10:24:20.307Z,84.58
2022-10-19T10:26:50.075Z,84.61
2022-10-19T10:29:26.738Z,84.25
2022-10-19T10:32:16.424Z,84.71
2022-10-19T10:34:51.285Z,84.65
2022-10-19T10:37:40.431Z,85.31
2022-10-19T10:40:26.405Z,84.53
2022-10-19T10:42:55.257Z,85.21
2022-10-19T10:45:37.489Z,85.87
2022-10-19T10:48:28.768Z,86.50
2022-10-19T10:50:57.250Z,86.82
2022-10-19T10:53:44.083Z,88.09
2022-10-19T10:56:25.358Z,87.53
2022-10-19T10:59:10.660Z,87.71
2022-10-19T11:01:41.794Z,87.30
2022-10-19T11:04:37.287Z,86.01
2022-10-19T11:07:22.987Z,85.71
2022-10-19T11:09:57.342Z,84.81
2022-10-19T11:12:41.627Z,85.14
2022-10-19T11:15:35.326Z,85.89
2022-10-19T11:18:15.701Z,86.65
2022-10-19T11:20:51.810Z,86.89
2022-10-19T11:23:41.295Z,87.37
2022-10-19T11:26:26.303Z,87.75
2022-10-19T11:29:21.550Z,87.08
2022-10-19T11:31:51.360Z,87.12
2022-10-19T11:34:39.503Z,86.87
2022-10-19T11:37:26.043Z,86.59
2022-10-19T11:40:22.085Z,86.82
2022-10-19T11:43:31.008Z,86.97
2022-10-19T11:46:33.535Z,86.92
2022-10-19T11:49:25.353Z,86.62
2022-10-19T11:52:12.297Z,86.30
2022-10-19T11:55:23.297Z,87.36
2022-10-19T11:57:58.722Z,87.30
2022-10-19T12:00:45.592Z,87.14
2022-10-19T12:03:53.981Z,86.95
2022-10-19T12:07:08.449Z,85.45
2022-10-19T12:09:55.171Z,85.84
2022-10-19T12:12:41.675Z,85.65
2022-10-19T12:15:23.925Z,84.20
2022-10-19T12:17:52.968Z,84.42
2022-10-19T12:20:24.184Z,83.70
2022-10-19T12:22:51.029Z,82.14
2022-10-19T12:25:19.869Z,81.70
2022-10-19T12:27:49.158Z,79.40
2022-10-19T12:30:21.597Z,80.32
2022-10-19T12:33:22.789Z,78.29
2022-10-19T12:36:13.778Z,76.23
2022-10-19T12:39:33.388Z,72.22
2022-10-19T12:42:22.996Z,75.23
2022-10-19T12:45:31.197Z,75.54
2022-10-19T12:48:29.677Z,77.43
2022-10-19T12:51:02.442Z,77.08
2022-10-19T12:53:36.211Z,75.14
2022-10-19T12:56:07.157Z,75.67
2022-10-19T12:59:01.486Z,77.76
2022-10-19T13:01:54.784Z,79.17
2022-10-19T13:04:24.788Z,79.29
2022-10-19T13:07:18.263Z,78.90
2022-10-19T13:09:47.577Z,79.28
2022-10-19T13:12:44.394Z,79.98
2022-10-19T13:15:56.137Z,79.44
2022-10-19T13:19:04.383Z,80.71
2022-10-19T13:22:09.630Z,80.02
2022-10-19T13:24:37.619Z,78.82
2022-10-19T13:27:26.819Z,78.19
2022-10-19T13:29:54.054Z,79.72
2022-10-19T13:32:37.824Z,80.00
2022-10-19T13:35:30.680Z,79.06
2022-10-19T13:41:21.772Z,79.41
2022-10-19T13:44:35.332Z,79.77
2022-10-19T13:47:42.591Z,80.72
2022-10-19T13:50:43.725Z,81.01
2022-10-19T13:53:40.901Z,81.20
2022-10-19T13:56:27.702Z,82.50
2022-10-19T13:59:43.962Z,82.58
2022-10-19T14:02:50.463Z,82.53
2022-10-19T14:05:54.563Z,78.96
2022-10-19T14:09:04.556Z,78.08
2022-10-19T14:11:37.082Z,79.63
2022-10-19T14:14:15.749Z,79.97
2022-10-19T14:16:47.941Z,79.11
2022-10-19T14:19:26.731Z,78.28
2022-10-19T14:21:55.611Z,79.25
2022-10-19T14:24:29.397Z,80.02
2022-10-19T14:26:56.931Z,78.53
2022-10-19T14:29:23.686Z,78.80
2022-10-19T14:31:50.362Z,79.84
2022-10-19T14:34:16.965Z,80.49
2022-10-19T14:36:47.156Z,81.28
2022-10-19T14:39:32.156Z,80.79
2022-10-19T14:42:09.707Z,81.04
2022-10-19T14:44:42.119Z,79.54
2022-10-19T14:47:19.996Z,79.81
2022-10-19T14:49:47.216Z,80.59
2022-10-19T14:52:24.637Z,81.18
2022-10-19T14:54:55.740Z,82.05
2022-10-19T14:57:36.139Z,82.50
2022-10-19T15:00:09.990Z,82.48
2022-10-19T15:02:40.336Z,82.91
2022-10-19T15:05:19.433Z,83.12
2022-10-19T15:07:46.893Z,82.85
2022-10-19T15:10:43.571Z,83.26
2022-10-19T15:13:22.874Z,83.86
2022-10-19T15:15:52.326Z,84.47
2022-10-19T15:18:43.839Z,84.11
2022-10-19T15:21:21.195Z,84.41
2022-10-19T15:23:50.438Z,83.96
2022-10-19T15:26:29.269Z,84.26
2022-10-19T15:29:12.740Z,84.39
2022-10-19T15:31:39.528Z,84.41
2022-10-19T15:34:06.122Z,85.01
2022-10-19T15:36:33.081Z,85.76
2022-10-19T15:39:18.175Z,86.08
2022-10-19T15:41:51.579Z,86.77
2022-10-19T15:44:42.023Z,87.88
2022-10-19T15:47:23.251Z,87.82
2022-10-19T15:50:01.538Z,88.34
2022-10-19T15:52:34.379Z,88.78
2022-10-19T15:55:01.448Z,89.40
2022-10-19T15:57:36.849Z,89.48
2022-10-19T16:00:16.440Z,89.97
2022-10-19T16:02:43.637Z,90.59
2022-10-19T16:05:10.936Z,90.70
2022-10-19T16:07:39.565Z,90.56
2022-10-19T16:10:07.233Z,90.99
2022-10-19T16:12:33.951Z,91.10
2022-10-19T16:15:00.750Z,91.60
2022-10-19T16:17:27.475Z,91.94
2022-10-19T16:19:54.061Z,91.90
2022-10-19T16:22:20.675Z,91.72
2022-10-19T16:24:47.491Z,92.20
2022-10-19T16:27:16.105Z,93.64
2022-10-19T16:29:44.361Z,95.00
2022-10-19T16:32:10.975Z,95.27
2022-10-19T16:34:38.054Z,94.70
2022-10-19T16:37:06.943Z,94.83
2022-10-19T16:39:34.651Z,95.29
2022-10-19T16:42:01.501Z,95.29
2022-10-19T16:44:28.084Z,95.37
2022-10-19T16:46:56.972Z,95.88
2022-10-19T16:49:23.877Z,95.98
2022-10-19T16:51:53.364Z,95.84
2022-10-19T16:54:23.530Z,95.53
2022-10-19T16:56:50.158Z,96.12
2022-10-19T16:59:18.910Z,96.13
2022-10-19T17:01:47.061Z,95.60
2022-10-19T17:04:15.938Z,95.31
2022-10-19T17:06:42.773Z,95.28
2022-10-19T17:11:56.491Z,94.22
2022-10-19T17:14:23.312Z,93.76
2022-10-19T17:16:49.920Z,94.72
2022-10-19T17:19:16.576Z,95.02
2022-10-19T17:21:43.534Z,95.05
2022-10-19T17:24:21.151Z,94.24
2022-10-19T17:26:50.846Z,94.48
2022-10-19T17:29:18.056Z,90.33
2022-10-19T17:31:44.666Z,90.33
2022-10-19T17:34:11.896Z,89.34
2022-10-19T17:39:25.642Z,86.98
2022-10-19T17:42:02.291Z,87.03
2022-10-19T17:44:30.921Z,87.48
2022-10-19T17:46:57.901Z,87.77
2022-10-19T17:49:24.509Z,88.49
2022-10-19T17:51:53.698Z,88.28
2022-10-19T17:54:20.610Z,87.97
2022-10-19T17:56:47.324Z,88.25
2022-10-19T17:59:14.491Z,89.09
2022-10-19T18:01:41.658Z,88.88
2022-10-19T18:04:08.278Z,88.43
2022-10-19T18:06:36.714Z,88.27
2022-10-19T18:09:06.230Z,88.43
2022-10-19T18:11:37.234Z,88.60
2022-10-19T18:14:05.055Z,87.01
2022-10-19T18:16:37.964Z,87.46
2022-10-19T18:19:06.862Z,86.92
2022-10-19T18:21:38.502Z,87.99
2022-10-19T18:24:09.068Z,87.90
2022-10-19T18:26:39.451Z,87.42
2022-10-19T18:29:16.270Z,87.92
2022-10-19T18:31:43.237Z,87.63
2022-10-19T18:34:16.504Z,88.70
2022-10-19T18:36:43.730Z,87.77
2022-10-19T18:39:11.641Z,88.48
2022-10-19T18:41:38.578Z,87.29
2022-10-19T18:44:06.422Z,88.15
2022-10-19T18:46:35.162Z,89.56
2022-10-19T18:49:03.373Z,89.46
2022-10-19T18:51:32.206Z,90.39
2022-10-19T18:53:59.024Z,90.23
2022-10-19T18:56:26.782Z,90.75
2022-10-19T18:58:53.427Z,90.73
2022-10-19T19:01:24.070Z,91.34
2022-10-19T19:03:52.603Z,91.33
2022-10-19T19:06:29.410Z,91.38
2022-10-19T19:09:00.664Z,90.89
2022-10-19T19:11:35.932Z,88.70
2022-10-19T19:14:15.538Z,88.44
2022-10-19T19:16:43.423Z,85.85
2022-10-19T19:19:13.097Z,85.75
2022-10-19T19:21:43.531Z,86.48
2022-10-19T19:24:12.893Z,85.34
2022-10-19T19:26:43.114Z,84.60
2022-10-19T19:29:09.749Z,84.52
2022-10-19T19:31:36.431Z,83.73
2022-10-19T19:34:06.277Z,84.90
2022-10-19T19:36:33.453Z,83.80
2022-10-19T19:39:00.174Z,83.00
2022-10-19T19:41:28.873Z,82.83
2022-10-19T19:43:58.204Z,82.94
2022-10-19T19:46:24.809Z,83.33
2022-10-19T19:48:51.401Z,84.59
2022-10-19T19:51:20.497Z,84.27
2022-10-19T19:53:48.304Z,84.07
2022-10-19T19:56:16.534Z,83.58
2022-10-19T19:58:44.374Z,82.10
2022-10-19T20:01:13.868Z,82.30
2022-10-19T20:03:41.336Z,81.32
2022-10-19T20:06:09.238Z,80.01
2022-10-19T20:08:37.355Z,81.28
2022-10-19T20:11:09.737Z,81.49
2022-10-19T20:13:37.691Z,80.70
2022-10-19T20:16:13.113Z,78.89
2022-10-19T20:18:41.180Z,79.34
2022-10-19T20:21:07.893Z,79.46
2022-10-19T20:23:34.442Z,79.61
2022-10-19T20:26:01.450Z,78.02
2022-10-19T20:28:28.707Z,77.76
2022-10-19T20:31:07.531Z,76.54
2022-10-19T20:33:36.178Z,77.05
2022-10-19T20:36:15.498Z,76.61
2022-10-19T20:38:52.892Z,77.15
2022-10-19T20:41:22.036Z,76.69
2022-10-19T20:43:49.024Z,76.70
2022-10-19T20:46:22.243Z,76.03
2022-10-19T20:48:50.301Z,75.36
2022-10-19T20:51:30.660Z,75.45
2022-10-19T20:54:00.994Z,76.69
2022-10-19T20:56:30.201Z,78.29
2022-10-19T20:59:05.619Z,77.14
2022-10-19T21:01:34.584Z,76.24
2022-10-19T21:04:04.607Z,75.35
2022-10-19T21:06:34.244Z,75.10
2022-10-19T21:09:01.507Z,75.85
2022-10-19T21:11:34.748Z,76.40
2022-10-19T21:14:03.923Z,75.68
2022-10-19T21:16:33.612Z,76.29
2022-10-19T21:19:01.810Z,77.41
2022-10-19T21:21:30.888Z,76.53
2022-10-19T21:24:00.869Z,75.29
2022-10-19T21:26:28.633Z,77.36
2022-10-19T21:28:55.838Z,76.24
2022-10-19T21:31:25.013Z,75.65
2022-10-19T21:33:52.594Z,75.23
2022-10-19T21:36:21.515Z,75.94
2022-10-19T21:38:48.494Z,75.64
2022-10-19T21:41:20.853Z,73.25
2022-10-19T21:43:50.615Z,76.89
2022-10-19T21:46:19.473Z,76.16
2022-10-19T21:48:46.258Z,76.30
2022-10-19T21:51:54.550Z,75.02
2022-10-19T21:54:24.745Z,75.95
2022-10-19T21:56:51.844Z,75.91
2022-10-19T21:59:19.146Z,75.79
2022-10-19T22:01:45.826Z,75.95
2022-10-19T22:04:14.615Z,77.13
2022-10-19T22:06:42.424Z,76.21
2022-10-19T22:09:13.254Z,75.82
2022-10-19T22:11:40.050Z,76.78
2022-10-19T22:14:06.661Z,75.07
2022-10-19T22:16:35.102Z,76.21
2022-10-19T22:19:01.882Z,76.39
2022-10-19T22:21:30.713Z,76.55
2022-10-19T22:24:03.595Z,75.77
2022-10-19T22:26:33.914Z,77.94
2022-10-19T22:29:01.814Z,77.51
2022-10-19T22:31:30.175Z,77.06
2022-10-19T22:33:57.111Z,76.90
2022-10-19T22:36:23.909Z,77.62
2022-10-19T22:38:50.627Z,76.41
2022-10-19T22:41:17.330Z,77.52
2022-10-19T22:43:44.089Z,76.95
2022-10-19T22:46:10.641Z,76.31
2022-10-19T22:48:37.445Z,75.70
2022-10-19T22:51:03.958Z,76.47
2022-10-19T22:53:30.569Z,76.74
2022-10-19T22:55:57.348Z,76.39
2022-10-19T22:58:23.934Z,76.45
2022-10-19T23:01:09.384Z,77.28
2022-10-19T23:03:36.175Z,76.98
2022-10-19T23:06:03.086Z,77.12
2022-10-19T23:08:29.763Z,76.22
2022-10-19T23:10:56.577Z,76.69
2022-10-19T23:13:23.797Z,76.69
2022-10-19T23:15:53.394Z,76.79
2022-10-19T23:18:20.019Z,77.66
2022-10-19T23:20:54.199Z,77.28
2022-10-19T23:23:20.866Z,78.42
2022-10-19T23:26:20.156Z,78.89
2022-10-19T23:28:49.238Z,77.01
2022-10-19T23:31:24.217Z,77.25
2022-10-19T23:33:51.594Z,78.34
2022-10-19T23:36:20.188Z,78.05
2022-10-19T23:38:48.754Z,77.19
2022-10-19T23:41:15.935Z,76.99
2022-10-19T23:43:42.548Z,77.84
2022-10-19T23:46:09.644Z,77.79
2022-10-19T23:48:36.926Z,78.12
2022-10-19T23:51:09.124Z,77.14
2022-10-19T23:53:40.772Z,77.12
2022-10-19T23:56:22.601Z,77.46
2022-10-19T23:58:50.066Z,78.50
